sensor_id;sensor_type;location;lat;lon;timestamp;P1;durP1;ratioP1;P2;durP2;ratioP2
57093;SDS011;42970;50.996;3.706;2023-06-01T00:01:27;20.85;;;9.57;;
57093;SDS011;42970;50.996;3.706;2023-06-01T00:04:02;24.70;;;9.43;;
57093;SDS011;42970;50.996;3.706;2023-06-01T00:06:28;20.40;;;9.50;;
57093;SDS011;42970;50.996;3.706;2023-06-01T00:08:55;28.63;;;9.98;;
57093;SDS011;42970;50.996;3.706;2023-06-01T00:11:21;23.08;;;9.70;;
57093;SDS011;42970;50.996;3.706;2023-06-01T00:13:47;18.23;;;9.70;;
57093;SDS011;42970;50.996;3.706;2023-06-01T00:16:13;21.40;;;9.55;;
57093;SDS011;42970;50.996;3.706;2023-06-01T00:18:39;21.42;;;8.38;;
57093;SDS011;42970;50.996;3.706;2023-06-01T00:21:05;22.65;;;8.68;;
57093;SDS011;42970;50.996;3.706;2023-06-01T00:23:30;18.38;;;9.13;;
57093;SDS011;42970;50.996;3.706;2023-06-01T00:25:56;20.00;;;8.27;;
57093;SDS011;42970;50.996;3.706;2023-06-01T00:28:23;23.77;;;9.63;;
57093;SDS011;42970;50.996;3.706;2023-06-01T00:30:48;18.33;;;9.05;;
57093;SDS011;42970;50.996;3.706;2023-06-01T00:33:14;17.65;;;8.55;;
57093;SDS011;42970;50.996;3.706;2023-06-01T00:35:40;20.85;;;9.32;;
57093;SDS011;42970;50.996;3.706;2023-06-01T00:38:06;19.42;;;9.07;;
57093;SDS011;42970;50.996;3.706;2023-06-01T00:40:32;26.52;;;9.48;;
57093;SDS011;42970;50.996;3.706;2023-06-01T00:42:58;21.17;;;9.43;;
57093;SDS011;42970;50.996;3.706;2023-06-01T00:45:24;17.73;;;9.25;;
57093;SDS011;42970;50.996;3.706;2023-06-01T00:47:49;23.35;;;10.27;;
57093;SDS011;42970;50.996;3.706;2023-06-01T00:50:14;24.52;;;9.23;;
57093;SDS011;42970;50.996;3.706;2023-06-01T00:52:40;29.48;;;9.70;;
57093;SDS011;42970;50.996;3.706;2023-06-01T00:55:07;24.48;;;8.95;;
57093;SDS011;42970;50.996;3.706;2023-06-01T00:57:34;24.58;;;9.80;;
57093;SDS011;42970;50.996;3.706;2023-06-01T01:00:01;22.48;;;9.48;;
57093;SDS011;42970;50.996;3.706;2023-06-01T01:02:35;20.60;;;9.77;;
57093;SDS011;42970;50.996;3.706;2023-06-01T01:05:08;17.17;;;8.48;;
57093;SDS011;42970;50.996;3.706;2023-06-01T01:18:14;19.88;;;8.60;;
57093;SDS011;42970;50.996;3.706;2023-06-01T01:20:46;31.38;;;9.32;;
57093;SDS011;42970;50.996;3.706;2023-06-01T01:28:46;34.88;;;10.00;;
57093;SDS011;42970;50.996;3.706;2023-06-01T01:31:13;19.23;;;9.02;;
57093;SDS011;42970;50.996;3.706;2023-06-01T01:33:42;23.10;;;9.25;;
57093;SDS011;42970;50.996;3.706;2023-06-01T01:36:10;20.88;;;8.95;;
57093;SDS011;42970;50.996;3.706;2023-06-01T01:38:37;24.17;;;9.85;;
57093;SDS011;42970;50.996;3.706;2023-06-01T01:41:03;26.88;;;10.18;;
57093;SDS011;42970;50.996;3.706;2023-06-01T01:43:29;19.27;;;8.88;;
57093;SDS011;42970;50.996;3.706;2023-06-01T01:45:57;21.90;;;9.85;;
57093;SDS011;42970;50.996;3.706;2023-06-01T01:48:28;26.25;;;9.93;;
57093;SDS011;42970;50.996;3.706;2023-06-01T01:51:07;24.48;;;10.05;;
57093;SDS011;42970;50.996;3.706;2023-06-01T01:53:38;26.13;;;10.43;;
57093;SDS011;42970;50.996;3.706;2023-06-01T01:56:05;18.85;;;9.68;;
57093;SDS011;42970;50.996;3.706;2023-06-01T01:58:32;18.40;;;10.15;;
57093;SDS011;42970;50.996;3.706;2023-06-01T02:00:58;16.80;;;9.23;;
57093;SDS011;42970;50.996;3.706;2023-06-01T02:03:24;22.40;;;8.95;;
57093;SDS011;42970;50.996;3.706;2023-06-01T02:05:50;23.75;;;9.27;;
57093;SDS011;42970;50.996;3.706;2023-06-01T02:08:15;36.05;;;11.00;;
57093;SDS011;42970;50.996;3.706;2023-06-01T02:10:41;22.42;;;9.50;;
57093;SDS011;42970;50.996;3.706;2023-06-01T02:13:06;19.50;;;8.90;;
57093;SDS011;42970;50.996;3.706;2023-06-01T02:15:31;20.65;;;9.00;;
57093;SDS011;42970;50.996;3.706;2023-06-01T02:17:57;24.83;;;11.63;;
57093;SDS011;42970;50.996;3.706;2023-06-01T02:20:24;27.42;;;10.18;;
57093;SDS011;42970;50.996;3.706;2023-06-01T02:22:50;25.08;;;11.32;;
57093;SDS011;42970;50.996;3.706;2023-06-01T02:25:15;20.52;;;10.10;;
57093;SDS011;42970;50.996;3.706;2023-06-01T02:27:41;21.42;;;10.30;;
57093;SDS011;42970;50.996;3.706;2023-06-01T02:30:06;19.17;;;8.43;;
57093;SDS011;42970;50.996;3.706;2023-06-01T02:32:32;20.55;;;10.63;;
57093;SDS011;42970;50.996;3.706;2023-06-01T02:34:58;19.17;;;8.98;;
57093;SDS011;42970;50.996;3.706;2023-06-01T02:37:23;23.20;;;10.23;;
57093;SDS011;42970;50.996;3.706;2023-06-01T02:39:49;28.63;;;10.27;;
57093;SDS011;42970;50.996;3.706;2023-06-01T02:42:15;25.15;;;10.20;;
57093;SDS011;42970;50.996;3.706;2023-06-01T02:44:40;33.10;;;12.95;;
57093;SDS011;42970;50.996;3.706;2023-06-01T02:47:06;24.27;;;11.25;;
57093;SDS011;42970;50.996;3.706;2023-06-01T02:49:32;31.10;;;11.65;;
57093;SDS011;42970;50.996;3.706;2023-06-01T02:51:57;28.40;;;11.60;;
57093;SDS011;42970;50.996;3.706;2023-06-01T02:54:23;21.40;;;9.60;;
57093;SDS011;42970;50.996;3.706;2023-06-01T02:56:48;23.33;;;11.25;;
57093;SDS011;42970;50.996;3.706;2023-06-01T02:59:14;24.92;;;10.52;;
57093;SDS011;42970;50.996;3.706;2023-06-01T03:01:39;21.27;;;11.00;;
57093;SDS011;42970;50.996;3.706;2023-06-01T03:04:05;22.42;;;10.05;;
57093;SDS011;42970;50.996;3.706;2023-06-01T03:06:31;21.33;;;11.10;;
57093;SDS011;42970;50.996;3.706;2023-06-01T03:08:57;32.08;;;11.55;;
57093;SDS011;42970;50.996;3.706;2023-06-01T03:11:23;25.90;;;10.88;;
57093;SDS011;42970;50.996;3.706;2023-06-01T03:13:49;13.73;;;7.57;;
57093;SDS011;42970;50.996;3.706;2023-06-01T03:16:15;23.20;;;9.40;;
57093;SDS011;42970;50.996;3.706;2023-06-01T03:18:41;28.73;;;12.10;;
57093;SDS011;42970;50.996;3.706;2023-06-01T03:21:07;28.27;;;11.18;;
57093;SDS011;42970;50.996;3.706;2023-06-01T03:23:32;25.70;;;11.30;;
57093;SDS011;42970;50.996;3.706;2023-06-01T03:25:58;20.90;;;10.23;;
57093;SDS011;42970;50.996;3.706;2023-06-01T03:28:24;28.17;;;10.10;;
57093;SDS011;42970;50.996;3.706;2023-06-01T03:30:50;17.92;;;9.05;;
57093;SDS011;42970;50.996;3.706;2023-06-01T03:33:16;25.05;;;12.93;;
57093;SDS011;42970;50.996;3.706;2023-06-01T03:35:42;36.25;;;11.57;;
57093;SDS011;42970;50.996;3.706;2023-06-01T03:38:09;32.92;;;10.43;;
57093;SDS011;42970;50.996;3.706;2023-06-01T03:40:35;24.67;;;11.77;;
57093;SDS011;42970;50.996;3.706;2023-06-01T03:43:00;24.20;;;10.82;;
57093;SDS011;42970;50.996;3.706;2023-06-01T03:45:27;25.27;;;11.43;;
57093;SDS011;42970;50.996;3.706;2023-06-01T03:47:52;25.77;;;11.13;;
57093;SDS011;42970;50.996;3.706;2023-06-01T03:50:18;21.90;;;9.85;;
57093;SDS011;42970;50.996;3.706;2023-06-01T03:52:43;29.02;;;12.13;;
57093;SDS011;42970;50.996;3.706;2023-06-01T03:55:09;28.48;;;12.07;;
57093;SDS011;42970;50.996;3.706;2023-06-01T03:57:36;31.80;;;10.73;;
57093;SDS011;42970;50.996;3.706;2023-06-01T04:00:03;24.23;;;11.70;;
57093;SDS011;42970;50.996;3.706;2023-06-01T04:02:44;26.52;;;9.40;;
57093;SDS011;42970;50.996;3.706;2023-06-01T04:05:13;23.95;;;8.52;;
57093;SDS011;42970;50.996;3.706;2023-06-01T04:07:42;21.90;;;10.27;;
57093;SDS011;42970;50.996;3.706;2023-06-01T04:10:09;18.52;;;9.60;;
57093;SDS011;42970;50.996;3.706;2023-06-01T04:12:36;24.23;;;11.23;;
57093;SDS011;42970;50.996;3.706;2023-06-01T04:15:01;23.30;;;10.77;;
57093;SDS011;42970;50.996;3.706;2023-06-01T04:17:27;23.75;;;10.70;;
57093;SDS011;42970;50.996;3.706;2023-06-01T04:19:52;21.20;;;8.73;;
57093;SDS011;42970;50.996;3.706;2023-06-01T04:22:17;24.17;;;11.18;;
57093;SDS011;42970;50.996;3.706;2023-06-01T04:24:43;25.17;;;8.65;;
57093;SDS011;42970;50.996;3.706;2023-06-01T04:27:08;17.65;;;9.98;;
57093;SDS011;42970;50.996;3.706;2023-06-01T04:29:34;26.00;;;10.80;;
57093;SDS011;42970;50.996;3.706;2023-06-01T04:31:59;19.27;;;9.75;;
57093;SDS011;42970;50.996;3.706;2023-06-01T04:34:24;19.77;;;9.98;;
57093;SDS011;42970;50.996;3.706;2023-06-01T04:36:50;19.55;;;9.85;;
57093;SDS011;42970;50.996;3.706;2023-06-01T04:39:16;24.60;;;10.13;;
57093;SDS011;42970;50.996;3.706;2023-06-01T04:41:42;25.67;;;11.15;;
57093;SDS011;42970;50.996;3.706;2023-06-01T04:44:07;30.85;;;12.25;;
57093;SDS011;42970;50.996;3.706;2023-06-01T04:46:33;37.05;;;14.27;;
57093;SDS011;42970;50.996;3.706;2023-06-01T04:49:00;32.03;;;14.13;;
57093;SDS011;42970;50.996;3.706;2023-06-01T04:51:26;34.17;;;14.57;;
57093;SDS011;42970;50.996;3.706;2023-06-01T04:53:54;45.88;;;15.50;;
57093;SDS011;42970;50.996;3.706;2023-06-01T04:56:20;24.00;;;10.32;;
57093;SDS011;42970;50.996;3.706;2023-06-01T04:58:49;24.17;;;11.57;;
57093;SDS011;42970;50.996;3.706;2023-06-01T05:01:15;28.70;;;11.98;;
57093;SDS011;42970;50.996;3.706;2023-06-01T05:03:46;23.98;;;10.18;;
57093;SDS011;42970;50.996;3.706;2023-06-01T05:06:12;23.20;;;10.02;;
57093;SDS011;42970;50.996;3.706;2023-06-01T05:08:41;29.92;;;13.05;;
57093;SDS011;42970;50.996;3.706;2023-06-01T05:11:07;29.77;;;10.20;;
57093;SDS011;42970;50.996;3.706;2023-06-01T05:13:34;19.85;;;9.60;;
57093;SDS011;42970;50.996;3.706;2023-06-01T05:16:00;18.15;;;9.10;;
57093;SDS011;42970;50.996;3.706;2023-06-01T05:18:26;21.27;;;9.48;;
57093;SDS011;42970;50.996;3.706;2023-06-01T05:20:51;19.30;;;9.02;;
57093;SDS011;42970;50.996;3.706;2023-06-01T05:23:17;23.25;;;9.85;;
57093;SDS011;42970;50.996;3.706;2023-06-01T05:25:42;21.90;;;10.20;;
57093;SDS011;42970;50.996;3.706;2023-06-01T05:28:07;30.60;;;12.30;;
57093;SDS011;42970;50.996;3.706;2023-06-01T05:30:33;48.97;;;17.80;;
57093;SDS011;42970;50.996;3.706;2023-06-01T05:32:59;43.85;;;14.77;;
57093;SDS011;42970;50.996;3.706;2023-06-01T05:35:24;28.00;;;11.25;;
57093;SDS011;42970;50.996;3.706;2023-06-01T05:37:50;23.38;;;10.93;;
57093;SDS011;42970;50.996;3.706;2023-06-01T05:40:15;25.95;;;10.82;;
57093;SDS011;42970;50.996;3.706;2023-06-01T05:42:41;16.42;;;8.52;;
57093;SDS011;42970;50.996;3.706;2023-06-01T05:45:06;23.55;;;8.65;;
57093;SDS011;42970;50.996;3.706;2023-06-01T05:47:32;18.50;;;8.70;;
57093;SDS011;42970;50.996;3.706;2023-06-01T05:49:57;25.70;;;9.38;;
57093;SDS011;42970;50.996;3.706;2023-06-01T05:52:23;17.10;;;8.32;;
57093;SDS011;42970;50.996;3.706;2023-06-01T05:54:48;14.95;;;7.00;;
57093;SDS011;42970;50.996;3.706;2023-06-01T05:57:15;20.30;;;8.00;;
57093;SDS011;42970;50.996;3.706;2023-06-01T05:59:41;18.98;;;7.57;;
57093;SDS011;42970;50.996;3.706;2023-06-01T06:02:07;13.23;;;6.65;;
57093;SDS011;42970;50.996;3.706;2023-06-01T06:04:32;25.00;;;9.38;;
57093;SDS011;42970;50.996;3.706;2023-06-01T06:06:58;12.13;;;6.75;;
57093;SDS011;42970;50.996;3.706;2023-06-01T06:09:23;17.73;;;8.18;;
57093;SDS011;42970;50.996;3.706;2023-06-01T06:11:49;20.30;;;7.80;;
57093;SDS011;42970;50.996;3.706;2023-06-01T06:14:14;18.08;;;8.32;;
57093;SDS011;42970;50.996;3.706;2023-06-01T06:16:41;24.40;;;7.47;;
57093;SDS011;42970;50.996;3.706;2023-06-01T06:19:07;18.88;;;8.32;;
57093;SDS011;42970;50.996;3.706;2023-06-01T06:21:32;20.35;;;8.63;;
57093;SDS011;42970;50.996;3.706;2023-06-01T06:23:58;19.25;;;7.80;;
57093;SDS011;42970;50.996;3.706;2023-06-01T06:26:24;21.17;;;8.50;;
57093;SDS011;42970;50.996;3.706;2023-06-01T06:28:53;17.20;;;7.95;;
57093;SDS011;42970;50.996;3.706;2023-06-01T06:31:19;15.63;;;7.63;;
57093;SDS011;42970;50.996;3.706;2023-06-01T06:33:45;25.83;;;9.13;;
57093;SDS011;42970;50.996;3.706;2023-06-01T06:36:10;15.98;;;8.57;;
57093;SDS011;42970;50.996;3.706;2023-06-01T06:38:35;13.55;;;7.55;;
57093;SDS011;42970;50.996;3.706;2023-06-01T06:41:01;17.20;;;9.30;;
57093;SDS011;42970;50.996;3.706;2023-06-01T06:43:26;21.27;;;9.38;;
57093;SDS011;42970;50.996;3.706;2023-06-01T06:45:52;19.88;;;10.48;;
57093;SDS011;42970;50.996;3.706;2023-06-01T06:48:17;15.02;;;9.27;;
57093;SDS011;42970;50.996;3.706;2023-06-01T06:50:42;19.10;;;8.85;;
57093;SDS011;42970;50.996;3.706;2023-06-01T06:53:10;27.15;;;11.00;;
57093;SDS011;42970;50.996;3.706;2023-06-01T06:55:36;17.92;;;9.02;;
57093;SDS011;42970;50.996;3.706;2023-06-01T06:58:02;18.17;;;9.02;;
57093;SDS011;42970;50.996;3.706;2023-06-01T07:00:27;14.40;;;8.65;;
57093;SDS011;42970;50.996;3.706;2023-06-01T07:02:53;16.85;;;9.38;;
57093;SDS011;42970;50.996;3.706;2023-06-01T07:05:18;21.52;;;8.43;;
57093;SDS011;42970;50.996;3.706;2023-06-01T07:07:44;20.40;;;9.45;;
57093;SDS011;42970;50.996;3.706;2023-06-01T07:10:10;21.13;;;8.45;;
57093;SDS011;42970;50.996;3.706;2023-06-01T07:12:35;23.65;;;10.18;;
57093;SDS011;42970;50.996;3.706;2023-06-01T07:15:01;14.55;;;8.18;;
57093;SDS011;42970;50.996;3.706;2023-06-01T07:17:27;18.20;;;9.40;;
57093;SDS011;42970;50.996;3.706;2023-06-01T07:19:52;19.52;;;8.65;;
57093;SDS011;42970;50.996;3.706;2023-06-01T07:22:18;15.35;;;8.40;;
57093;SDS011;42970;50.996;3.706;2023-06-01T07:24:45;19.08;;;8.68;;
57093;SDS011;42970;50.996;3.706;2023-06-01T07:27:12;17.27;;;8.18;;
57093;SDS011;42970;50.996;3.706;2023-06-01T07:29:38;29.38;;;10.60;;
57093;SDS011;42970;50.996;3.706;2023-06-01T07:32:05;22.20;;;10.40;;
57093;SDS011;42970;50.996;3.706;2023-06-01T07:34:31;20.02;;;9.52;;
57093;SDS011;42970;50.996;3.706;2023-06-01T07:36:58;20.42;;;7.75;;
57093;SDS011;42970;50.996;3.706;2023-06-01T07:39:24;13.73;;;7.35;;
57093;SDS011;42970;50.996;3.706;2023-06-01T07:41:50;15.77;;;7.50;;
57093;SDS011;42970;50.996;3.706;2023-06-01T07:44:18;15.45;;;7.97;;
57093;SDS011;42970;50.996;3.706;2023-06-01T07:46:44;16.02;;;8.02;;
57093;SDS011;42970;50.996;3.706;2023-06-01T07:49:09;16.60;;;8.15;;
57093;SDS011;42970;50.996;3.706;2023-06-01T07:51:38;18.25;;;8.00;;
57093;SDS011;42970;50.996;3.706;2023-06-01T07:54:07;18.75;;;7.75;;
57093;SDS011;42970;50.996;3.706;2023-06-01T07:56:33;13.05;;;7.05;;
57093;SDS011;42970;50.996;3.706;2023-06-01T07:58:59;11.82;;;7.57;;
57093;SDS011;42970;50.996;3.706;2023-06-01T08:01:25;18.00;;;8.35;;
57093;SDS011;42970;50.996;3.706;2023-06-01T08:03:50;14.05;;;7.20;;
57093;SDS011;42970;50.996;3.706;2023-06-01T08:06:27;16.20;;;7.88;;
57093;SDS011;42970;50.996;3.706;2023-06-01T08:08:52;31.65;;;8.10;;
57093;SDS011;42970;50.996;3.706;2023-06-01T08:11:17;17.45;;;8.57;;
57093;SDS011;42970;50.996;3.706;2023-06-01T08:13:43;19.60;;;9.75;;
57093;SDS011;42970;50.996;3.706;2023-06-01T08:16:11;17.65;;;8.93;;
57093;SDS011;42970;50.996;3.706;2023-06-01T08:18:38;18.90;;;9.13;;
57093;SDS011;42970;50.996;3.706;2023-06-01T08:21:03;24.85;;;9.00;;
57093;SDS011;42970;50.996;3.706;2023-06-01T08:23:29;15.07;;;7.95;;
57093;SDS011;42970;50.996;3.706;2023-06-01T08:25:55;18.42;;;6.93;;
57093;SDS011;42970;50.996;3.706;2023-06-01T08:28:20;12.52;;;7.43;;
57093;SDS011;42970;50.996;3.706;2023-06-01T08:30:46;16.80;;;9.25;;
57093;SDS011;42970;50.996;3.706;2023-06-01T08:33:12;18.38;;;8.35;;
57093;SDS011;42970;50.996;3.706;2023-06-01T08:35:37;24.27;;;10.05;;
57093;SDS011;42970;50.996;3.706;2023-06-01T08:38:02;23.38;;;10.80;;
57093;SDS011;42970;50.996;3.706;2023-06-01T08:40:28;17.42;;;9.10;;
57093;SDS011;42970;50.996;3.706;2023-06-01T08:42:57;22.98;;;9.75;;
57093;SDS011;42970;50.996;3.706;2023-06-01T08:45:27;24.83;;;9.73;;
57093;SDS011;42970;50.996;3.706;2023-06-01T08:47:54;22.25;;;11.07;;
57093;SDS011;42970;50.996;3.706;2023-06-01T08:50:21;23.05;;;11.20;;
57093;SDS011;42970;50.996;3.706;2023-06-01T08:52:47;25.77;;;11.13;;
57093;SDS011;42970;50.996;3.706;2023-06-01T08:55:15;19.92;;;9.30;;
57093;SDS011;42970;50.996;3.706;2023-06-01T08:57:41;13.82;;;8.02;;
57093;SDS011;42970;50.996;3.706;2023-06-01T09:00:07;18.30;;;9.10;;
57093;SDS011;42970;50.996;3.706;2023-06-01T09:02:33;19.30;;;8.75;;
57093;SDS011;42970;50.996;3.706;2023-06-01T09:04:59;15.43;;;8.63;;
57093;SDS011;42970;50.996;3.706;2023-06-01T09:07:24;18.88;;;10.07;;
57093;SDS011;42970;50.996;3.706;2023-06-01T09:09:51;18.88;;;8.85;;
57093;SDS011;42970;50.996;3.706;2023-06-01T09:12:27;19.23;;;8.63;;
57093;SDS011;42970;50.996;3.706;2023-06-01T09:15:13;16.40;;;8.70;;
57093;SDS011;42970;50.996;3.706;2023-06-01T09:17:50;15.90;;;8.00;;
57093;SDS011;42970;50.996;3.706;2023-06-01T09:20:26;20.15;;;8.43;;
57093;SDS011;42970;50.996;3.706;2023-06-01T09:22:53;18.30;;;7.50;;
57093;SDS011;42970;50.996;3.706;2023-06-01T09:25:26;12.82;;;7.75;;
57093;SDS011;42970;50.996;3.706;2023-06-01T09:27:59;18.20;;;8.80;;
57093;SDS011;42970;50.996;3.706;2023-06-01T09:30:26;13.75;;;7.88;;
57093;SDS011;42970;50.996;3.706;2023-06-01T09:33:06;15.80;;;7.95;;
57093;SDS011;42970;50.996;3.706;2023-06-01T09:35:44;21.45;;;8.98;;
57093;SDS011;42970;50.996;3.706;2023-06-01T09:38:09;20.73;;;9.38;;
57093;SDS011;42970;50.996;3.706;2023-06-01T09:40:36;16.27;;;9.32;;
57093;SDS011;42970;50.996;3.706;2023-06-01T09:43:03;16.02;;;9.43;;
57093;SDS011;42970;50.996;3.706;2023-06-01T09:45:43;25.70;;;9.20;;
57093;SDS011;42970;50.996;3.706;2023-06-01T09:48:17;17.90;;;7.57;;
57093;SDS011;42970;50.996;3.706;2023-06-01T09:50:47;19.63;;;9.18;;
57093;SDS011;42970;50.996;3.706;2023-06-01T09:53:12;16.40;;;8.80;;
57093;SDS011;42970;50.996;3.706;2023-06-01T09:58:23;21.08;;;9.45;;
57093;SDS011;42970;50.996;3.706;2023-06-01T10:00:49;17.77;;;8.68;;
57093;SDS011;42970;50.996;3.706;2023-06-01T10:03:16;16.63;;;8.25;;
57093;SDS011;42970;50.996;3.706;2023-06-01T10:05:45;22.35;;;9.85;;
57093;SDS011;42970;50.996;3.706;2023-06-01T10:08:17;19.92;;;8.88;;
57093;SDS011;42970;50.996;3.706;2023-06-01T10:10:44;16.38;;;8.75;;
57093;SDS011;42970;50.996;3.706;2023-06-01T10:13:11;16.25;;;9.00;;
57093;SDS011;42970;50.996;3.706;2023-06-01T10:15:37;20.63;;;8.60;;
57093;SDS011;42970;50.996;3.706;2023-06-01T10:18:03;18.60;;;8.65;;
57093;SDS011;42970;50.996;3.706;2023-06-01T10:20:33;16.15;;;7.47;;
57093;SDS011;42970;50.996;3.706;2023-06-01T10:23:03;18.00;;;8.43;;
57093;SDS011;42970;50.996;3.706;2023-06-01T10:25:42;18.13;;;8.13;;
57093;SDS011;42970;50.996;3.706;2023-06-01T10:28:11;16.38;;;9.13;;
57093;SDS011;42970;50.996;3.706;2023-06-01T10:30:38;12.05;;;7.10;;
57093;SDS011;42970;50.996;3.706;2023-06-01T10:33:03;20.17;;;10.05;;
57093;SDS011;42970;50.996;3.706;2023-06-01T10:40:49;18.02;;;7.75;;
57093;SDS011;42970;50.996;3.706;2023-06-01T10:46:03;16.73;;;7.93;;
57093;SDS011;42970;50.996;3.706;2023-06-01T10:49:05;22.90;;;9.18;;
57093;SDS011;42970;50.996;3.706;2023-06-01T10:51:31;19.65;;;8.85;;
57093;SDS011;42970;50.996;3.706;2023-06-01T10:54:23;21.92;;;9.10;;
57093;SDS011;42970;50.996;3.706;2023-06-01T10:57:17;16.52;;;7.53;;
57093;SDS011;42970;50.996;3.706;2023-06-01T11:08:01;19.48;;;10.27;;
57093;SDS011;42970;50.996;3.706;2023-06-01T11:21:24;25.67;;;10.30;;
57093;SDS011;42970;50.996;3.706;2023-06-01T11:23:55;29.77;;;9.70;;
57093;SDS011;42970;50.996;3.706;2023-06-01T11:26:22;18.27;;;9.60;;
57093;SDS011;42970;50.996;3.706;2023-06-01T11:28:50;18.52;;;9.43;;
57093;SDS011;42970;50.996;3.706;2023-06-01T11:31:18;23.20;;;7.80;;
57093;SDS011;42970;50.996;3.706;2023-06-01T11:33:51;21.73;;;9.27;;
57093;SDS011;42970;50.996;3.706;2023-06-01T11:36:21;19.95;;;8.95;;
57093;SDS011;42970;50.996;3.706;2023-06-01T11:38:50;16.25;;;8.15;;
57093;SDS011;42970;50.996;3.706;2023-06-01T11:41:16;14.00;;;7.60;;
57093;SDS011;42970;50.996;3.706;2023-06-01T11:43:41;17.67;;;7.88;;
57093;SDS011;42970;50.996;3.706;2023-06-01T11:46:07;17.02;;;7.20;;
57093;SDS011;42970;50.996;3.706;2023-06-01T11:48:34;26.63;;;9.13;;
57093;SDS011;42970;50.996;3.706;2023-06-01T11:51:00;23.75;;;7.13;;
57093;SDS011;42970;50.996;3.706;2023-06-01T11:53:27;24.02;;;9.25;;
57093;SDS011;42970;50.996;3.706;2023-06-01T11:55:55;25.50;;;9.52;;
57093;SDS011;42970;50.996;3.706;2023-06-01T11:58:24;23.45;;;10.15;;
57093;SDS011;42970;50.996;3.706;2023-06-01T12:00:51;23.30;;;9.63;;
57093;SDS011;42970;50.996;3.706;2023-06-01T12:03:17;19.27;;;10.65;;
57093;SDS011;42970;50.996;3.706;2023-06-01T12:05:43;22.90;;;10.73;;
57093;SDS011;42970;50.996;3.706;2023-06-01T12:08:13;26.42;;;8.98;;
57093;SDS011;42970;50.996;3.706;2023-06-01T12:10:43;26.90;;;11.43;;
57093;SDS011;42970;50.996;3.706;2023-06-01T12:13:11;25.42;;;11.15;;
57093;SDS011;42970;50.996;3.706;2023-06-01T12:15:37;19.13;;;10.25;;
57093;SDS011;42970;50.996;3.706;2023-06-01T12:18:04;25.08;;;11.20;;
57093;SDS011;42970;50.996;3.706;2023-06-01T12:20:33;21.70;;;10.93;;
57093;SDS011;42970;50.996;3.706;2023-06-01T12:23:01;19.73;;;10.45;;
57093;SDS011;42970;50.996;3.706;2023-06-01T12:25:30;23.40;;;9.75;;
57093;SDS011;42970;50.996;3.706;2023-06-01T12:28:03;23.80;;;11.82;;
57093;SDS011;42970;50.996;3.706;2023-06-01T12:30:30;20.90;;;11.43;;
57093;SDS011;42970;50.996;3.706;2023-06-01T12:32:56;20.65;;;10.57;;
57093;SDS011;42970;50.996;3.706;2023-06-01T12:35:22;19.05;;;10.93;;
57093;SDS011;42970;50.996;3.706;2023-06-01T12:40:28;27.45;;;12.40;;
57093;SDS011;42970;50.996;3.706;2023-06-01T12:42:54;24.77;;;11.15;;
57093;SDS011;42970;50.996;3.706;2023-06-01T12:45:19;24.40;;;12.30;;
57093;SDS011;42970;50.996;3.706;2023-06-01T12:47:45;20.85;;;12.90;;
57093;SDS011;42970;50.996;3.706;2023-06-01T12:50:11;22.70;;;11.07;;
57093;SDS011;42970;50.996;3.706;2023-06-01T12:52:38;28.27;;;12.70;;
57093;SDS011;42970;50.996;3.706;2023-06-01T12:55:04;23.67;;;12.13;;
57093;SDS011;42970;50.996;3.706;2023-06-01T12:57:31;30.35;;;12.38;;
57093;SDS011;42970;50.996;3.706;2023-06-01T12:59:56;19.13;;;10.55;;
57093;SDS011;42970;50.996;3.706;2023-06-01T13:02:22;27.75;;;11.70;;
57093;SDS011;42970;50.996;3.706;2023-06-01T13:04:49;24.05;;;12.00;;
57093;SDS011;42970;50.996;3.706;2023-06-01T13:07:15;20.20;;;11.00;;
57093;SDS011;42970;50.996;3.706;2023-06-01T13:09:41;22.80;;;12.45;;
57093;SDS011;42970;50.996;3.706;2023-06-01T13:12:07;29.02;;;12.68;;
57093;SDS011;42970;50.996;3.706;2023-06-01T13:14:33;26.33;;;11.15;;
57093;SDS011;42970;50.996;3.706;2023-06-01T13:16:58;27.30;;;11.43;;
57093;SDS011;42970;50.996;3.706;2023-06-01T13:19:24;24.23;;;11.57;;
57093;SDS011;42970;50.996;3.706;2023-06-01T13:21:50;30.77;;;9.80;;
57093;SDS011;42970;50.996;3.706;2023-06-01T13:24:19;22.98;;;10.40;;
57093;SDS011;42970;50.996;3.706;2023-06-01T13:26:44;23.25;;;11.43;;
57093;SDS011;42970;50.996;3.706;2023-06-01T13:29:10;20.95;;;11.02;;
57093;SDS011;42970;50.996;3.706;2023-06-01T13:31:38;23.58;;;11.80;;
57093;SDS011;42970;50.996;3.706;2023-06-01T13:34:06;20.27;;;9.90;;
57093;SDS011;42970;50.996;3.706;2023-06-01T13:36:34;25.75;;;9.68;;
57093;SDS011;42970;50.996;3.706;2023-06-01T13:39:00;26.85;;;10.30;;
57093;SDS011;42970;50.996;3.706;2023-06-01T13:41:26;24.80;;;10.00;;
57093;SDS011;42970;50.996;3.706;2023-06-01T13:43:51;25.42;;;10.32;;
57093;SDS011;42970;50.996;3.706;2023-06-01T13:46:17;16.98;;;9.55;;
57093;SDS011;42970;50.996;3.706;2023-06-01T13:48:42;19.67;;;9.65;;
57093;SDS011;42970;50.996;3.706;2023-06-01T13:51:08;20.02;;;8.95;;
57093;SDS011;42970;50.996;3.706;2023-06-01T13:53:34;26.13;;;9.75;;
57093;SDS011;42970;50.996;3.706;2023-06-01T13:56:00;17.55;;;8.85;;
57093;SDS011;42970;50.996;3.706;2023-06-01T13:58:25;22.08;;;8.43;;
57093;SDS011;42970;50.996;3.706;2023-06-01T14:00:51;20.90;;;7.60;;
57093;SDS011;42970;50.996;3.706;2023-06-01T14:03:16;34.83;;;9.70;;
57093;SDS011;42970;50.996;3.706;2023-06-01T14:05:42;16.67;;;7.80;;
57093;SDS011;42970;50.996;3.706;2023-06-01T14:08:07;16.88;;;7.80;;
57093;SDS011;42970;50.996;3.706;2023-06-01T14:10:33;13.50;;;6.40;;
57093;SDS011;42970;50.996;3.706;2023-06-01T14:12:59;12.50;;;6.30;;
57093;SDS011;42970;50.996;3.706;2023-06-01T14:15:25;14.02;;;7.32;;
57093;SDS011;42970;50.996;3.706;2023-06-01T14:17:50;13.32;;;6.78;;
57093;SDS011;42970;50.996;3.706;2023-06-01T14:20:16;10.43;;;5.65;;
57093;SDS011;42970;50.996;3.706;2023-06-01T14:22:41;12.60;;;7.10;;
57093;SDS011;42970;50.996;3.706;2023-06-01T14:25:08;15.75;;;7.03;;
57093;SDS011;42970;50.996;3.706;2023-06-01T14:27:33;16.02;;;7.25;;
57093;SDS011;42970;50.996;3.706;2023-06-01T14:29:59;12.93;;;5.85;;
57093;SDS011;42970;50.996;3.706;2023-06-01T14:32:28;15.95;;;6.25;;
57093;SDS011;42970;50.996;3.706;2023-06-01T14:34:53;15.35;;;6.95;;
57093;SDS011;42970;50.996;3.706;2023-06-01T14:37:19;15.13;;;5.68;;
57093;SDS011;42970;50.996;3.706;2023-06-01T14:39:44;8.23;;;3.97;;
57093;SDS011;42970;50.996;3.706;2023-06-01T14:42:11;8.40;;;5.65;;
57093;SDS011;42970;50.996;3.706;2023-06-01T14:44:37;21.58;;;4.68;;
57093;SDS011;42970;50.996;3.706;2023-06-01T14:47:02;16.70;;;6.18;;
57093;SDS011;42970;50.996;3.706;2023-06-01T14:49:28;10.27;;;4.75;;
57093;SDS011;42970;50.996;3.706;2023-06-01T14:51:53;26.58;;;8.38;;
57093;SDS011;42970;50.996;3.706;2023-06-01T14:54:18;8.55;;;4.72;;
57093;SDS011;42970;50.996;3.706;2023-06-01T14:56:44;13.85;;;5.35;;
57093;SDS011;42970;50.996;3.706;2023-06-01T14:59:10;14.73;;;6.10;;
57093;SDS011;42970;50.996;3.706;2023-06-01T15:01:35;18.92;;;5.88;;
57093;SDS011;42970;50.996;3.706;2023-06-01T15:04:00;11.55;;;4.82;;
57093;SDS011;42970;50.996;3.706;2023-06-01T15:06:26;16.17;;;6.38;;
57093;SDS011;42970;50.996;3.706;2023-06-01T15:08:52;11.77;;;4.55;;
57093;SDS011;42970;50.996;3.706;2023-06-01T15:11:17;14.30;;;4.85;;
57093;SDS011;42970;50.996;3.706;2023-06-01T15:13:42;15.32;;;5.45;;
57093;SDS011;42970;50.996;3.706;2023-06-01T15:16:08;10.63;;;5.25;;
57093;SDS011;42970;50.996;3.706;2023-06-01T15:18:34;8.48;;;4.60;;